TSC42 CYUL-CYQM
Flight info
| Callsign | TSC42 |
|---|---|
| Flight time | 1h 4m |
| Altitude | 39000 |
| Route | SUXET DCT NOVUN DCT ESRAM DCT RABIK Q951 PUXOP |
| Aircraft | A321/M-SDE3FGHIRWY/LB1 |
Departure
| Time | 2026-04-23 18:59 |
|---|---|
| Airport | Montreal / Pierre Elliott Trudeau International Airport (CYUL) |
Arrival
| Time | 2026-04-23 20:03 |
|---|---|
| Airport | Greater Moncton Roméo LeBlanc International Airport (CYQM) |
| Time | Latitude | Longitude | Altitude | Speed | Heading |
|---|---|---|---|---|---|
| 2026-04-23 18:40 | 45.46081 | -73.75143 | 110 ft | 0 kts | 38° |
| 2026-04-23 18:51 | 45.46090 | -73.75132 | 104 ft | 2 kts | 38° |
| 2026-04-23 18:51 | 45.46102 | -73.75119 | 108 ft | 2 kts | 38° |
| 2026-04-23 18:52 | 45.46115 | -73.75108 | 110 ft | 2 kts | 22° |
| 2026-04-23 18:52 | 45.46129 | -73.75100 | 110 ft | 2 kts | 32° |
| 2026-04-23 18:52 | 45.46139 | -73.75083 | 110 ft | 2 kts | 53° |
| 2026-04-23 18:52 | 45.46145 | -73.75063 | 109 ft | 2 kts | 69° |
| 2026-04-23 18:53 | 45.46147 | -73.75042 | 109 ft | 2 kts | 81° |
| 2026-04-23 18:53 | 45.46149 | -73.75022 | 109 ft | 0 kts | 85° |
| 2026-04-23 18:55 | 45.46149 | -73.75016 | 109 ft | 6 kts | 85° |
| 2026-04-23 18:56 | 45.46153 | -73.74932 | 110 ft | 16 kts | 87° |
| 2026-04-23 18:56 | 45.46160 | -73.74725 | 112 ft | 16 kts | 88° |
| 2026-04-23 18:56 | 45.46144 | -73.74568 | 109 ft | 16 kts | 123° |
| 2026-04-23 18:56 | 45.46073 | -73.74467 | 109 ft | 14 kts | 136° |
| 2026-04-23 18:57 | 45.45999 | -73.74367 | 108 ft | 16 kts | 136° |
| 2026-04-23 18:57 | 45.45916 | -73.74275 | 106 ft | 11 kts | 148° |
| 2026-04-23 18:57 | 45.45857 | -73.74223 | 106 ft | 9 kts | 145° |
| 2026-04-23 18:57 | 45.45809 | -73.74152 | 105 ft | 11 kts | 127° |
| 2026-04-23 18:58 | 45.45829 | -73.74054 | 102 ft | 12 kts | 48° |
| 2026-04-23 18:58 | 45.45853 | -73.74022 | 103 ft | 0 kts | 39° |
| 2026-04-23 18:58 | 45.45870 | -73.74002 | 103 ft | 17 kts | 40° |
| 2026-04-23 18:58 | 45.46213 | -73.73557 | 111 ft | 111 kts | 43° |
| 2026-04-23 18:59 | 45.46938 | -73.72598 | 307 ft | 159 kts | 40° |
| 2026-04-23 18:59 | 45.47797 | -73.71439 | 891 ft | 182 kts | 41° |
| 2026-04-23 18:59 | 45.48790 | -73.70116 | 1465 ft | 211 kts | 40° |
| 2026-04-23 18:59 | 45.49960 | -73.68580 | 2084 ft | 246 kts | 41° |
| 2026-04-23 19:00 | 45.51149 | -73.66766 | 3343 ft | 246 kts | 50° |
| 2026-04-23 19:00 | 45.51977 | -73.64726 | 4296 ft | 250 kts | 68° |
| 2026-04-23 19:00 | 45.52128 | -73.62136 | 4760 ft | 276 kts | 99° |
| 2026-04-23 19:00 | 45.51248 | -73.59657 | 5806 ft | 286 kts | 130° |
| 2026-04-23 19:01 | 45.49854 | -73.57631 | 7094 ft | 288 kts | 134° |
| 2026-04-23 19:01 | 45.48406 | -73.55589 | 8161 ft | 298 kts | 134° |
| 2026-04-23 19:01 | 45.46900 | -73.53476 | 9169 ft | 310 kts | 134° |
| 2026-04-23 19:01 | 45.45338 | -73.51286 | 10121 ft | 321 kts | 134° |
| 2026-04-23 19:02 | 45.44273 | -73.49794 | 10699 ft | 328 kts | 134° |
| 2026-04-23 19:02 | 45.42053 | -73.46686 | 11875 ft | 342 kts | 134° |
| 2026-04-23 19:02 | 45.40334 | -73.44276 | 12769 ft | 352 kts | 134° |
| 2026-04-23 19:02 | 45.38589 | -73.41826 | 13638 ft | 362 kts | 134° |
| 2026-04-23 19:03 | 45.36770 | -73.39275 | 14420 ft | 372 kts | 134° |
| 2026-04-23 19:03 | 45.34902 | -73.36661 | 15194 ft | 382 kts | 133° |
| 2026-04-23 19:03 | 45.32980 | -73.33974 | 15960 ft | 391 kts | 133° |
| 2026-04-23 19:03 | 45.31012 | -73.31234 | 16723 ft | 401 kts | 133° |
| 2026-04-23 19:04 | 45.28998 | -73.28432 | 17474 ft | 410 kts | 132° |
| 2026-04-23 19:04 | 45.26939 | -73.25561 | 18205 ft | 420 kts | 131° |
| 2026-04-23 19:04 | 45.24941 | -73.22495 | 18863 ft | 423 kts | 122° |
| 2026-04-23 19:04 | 45.23311 | -73.19040 | 19561 ft | 420 kts | 109° |
| 2026-04-23 19:05 | 45.22087 | -73.15313 | 20295 ft | 414 kts | 98° |
| 2026-04-23 19:05 | 45.21281 | -73.11451 | 21041 ft | 404 kts | 88° |
| 2026-04-23 19:05 | 45.20899 | -73.07561 | 21812 ft | 392 kts | 77° |
| 2026-04-23 19:05 | 45.20919 | -73.03760 | 22588 ft | 379 kts | 67° |
| 2026-04-23 19:06 | 45.21323 | -73.00145 | 23368 ft | 364 kts | 57° |
| 2026-04-23 19:06 | 45.22085 | -72.96808 | 24040 ft | 348 kts | 47° |
| 2026-04-23 19:06 | 45.23147 | -72.93804 | 24656 ft | 336 kts | 40° |
| 2026-04-23 19:06 | 45.24300 | -72.90946 | 25262 ft | 340 kts | 40° |
| 2026-04-23 19:07 | 45.25480 | -72.88014 | 25871 ft | 344 kts | 40° |
| 2026-04-23 19:07 | 45.26667 | -72.85048 | 26464 ft | 348 kts | 40° |
| 2026-04-23 19:07 | 45.27861 | -72.82029 | 27046 ft | 355 kts | 42° |
| 2026-04-23 19:07 | 45.28850 | -72.78673 | 27588 ft | 384 kts | 54° |
| 2026-04-23 19:08 | 45.29394 | -72.74809 | 28105 ft | 416 kts | 67° |
| 2026-04-23 19:08 | 45.29563 | -72.70644 | 28591 ft | 425 kts | 70° |
| 2026-04-23 19:08 | 45.29711 | -72.66429 | 29098 ft | 430 kts | 70° |
| 2026-04-23 19:08 | 45.29862 | -72.62170 | 29606 ft | 433 kts | 70° |
| 2026-04-23 19:09 | 45.30031 | -72.57883 | 30079 ft | 436 kts | 69° |
| 2026-04-23 19:09 | 45.30247 | -72.53583 | 30496 ft | 437 kts | 68° |
| 2026-04-23 19:09 | 45.30408 | -72.50739 | 30826 ft | 437 kts | 68° |
| 2026-04-23 19:09 | 45.30664 | -72.46444 | 31388 ft | 435 kts | 68° |
| 2026-04-23 19:10 | 45.30914 | -72.42191 | 32098 ft | 430 kts | 68° |
| 2026-04-23 19:10 | 45.31150 | -72.37982 | 32843 ft | 425 kts | 68° |
| 2026-04-23 19:10 | 45.31375 | -72.33826 | 33558 ft | 420 kts | 69° |
| 2026-04-23 19:10 | 45.31592 | -72.29712 | 34204 ft | 415 kts | 69° |
| 2026-04-23 19:11 | 45.31809 | -72.25635 | 34687 ft | 413 kts | 70° |
| 2026-04-23 19:11 | 45.32029 | -72.21567 | 35083 ft | 413 kts | 71° |
| 2026-04-23 19:11 | 45.32247 | -72.17497 | 35450 ft | 414 kts | 72° |
| 2026-04-23 19:11 | 45.32465 | -72.13417 | 35816 ft | 414 kts | 72° |
| 2026-04-23 19:12 | 45.32683 | -72.09337 | 36162 ft | 415 kts | 73° |
| 2026-04-23 19:12 | 45.32897 | -72.05248 | 36505 ft | 415 kts | 74° |
| 2026-04-23 19:12 | 45.33105 | -72.01156 | 36846 ft | 415 kts | 75° |
| 2026-04-23 19:12 | 45.33311 | -71.97061 | 37187 ft | 416 kts | 76° |
| 2026-04-23 19:13 | 45.33515 | -71.92962 | 37530 ft | 416 kts | 76° |
| 2026-04-23 19:13 | 45.33718 | -71.88867 | 37843 ft | 415 kts | 77° |
| 2026-04-23 19:13 | 45.33947 | -71.84780 | 38126 ft | 413 kts | 76° |
| 2026-04-23 19:13 | 45.34297 | -71.80736 | 38439 ft | 411 kts | 73° |
| 2026-04-23 19:14 | 45.34737 | -71.76731 | 38697 ft | 409 kts | 72° |
| 2026-04-23 19:14 | 45.35225 | -71.72747 | 38893 ft | 409 kts | 72° |
| 2026-04-23 19:14 | 45.35721 | -71.68756 | 38971 ft | 410 kts | 73° |
| 2026-04-23 19:15 | 45.36660 | -71.60751 | 38990 ft | 411 kts | 74° |
| 2026-04-23 19:15 | 45.37520 | -71.52721 | 38994 ft | 411 kts | 75° |
| 2026-04-23 19:16 | 45.38355 | -71.44687 | 38998 ft | 410 kts | 75° |
| 2026-04-23 19:16 | 45.39195 | -71.36665 | 38999 ft | 410 kts | 75° |
| 2026-04-23 19:17 | 45.40460 | -71.24649 | 39003 ft | 409 kts | 75° |
| 2026-04-23 19:17 | 45.41292 | -71.16636 | 39006 ft | 409 kts | 75° |
| 2026-04-23 19:18 | 45.42125 | -71.08632 | 39001 ft | 409 kts | 75° |
| 2026-04-23 19:18 | 45.42920 | -71.00620 | 39002 ft | 410 kts | 77° |
| 2026-04-23 19:19 | 45.43525 | -70.88432 | 38992 ft | 412 kts | 81° |
| 2026-04-23 19:20 | 45.43974 | -70.76204 | 38984 ft | 412 kts | 80° |
| 2026-04-23 19:20 | 45.44338 | -70.68069 | 38977 ft | 412 kts | 80° |
| 2026-04-23 19:21 | 45.45248 | -70.55967 | 38969 ft | 408 kts | 75° |
| 2026-04-23 19:22 | 45.46162 | -70.47998 | 38965 ft | 408 kts | 75° |
| 2026-04-23 19:22 | 45.47427 | -70.36005 | 38955 ft | 408 kts | 76° |
| 2026-04-23 19:23 | 45.48204 | -70.27981 | 38952 ft | 409 kts | 76° |
| 2026-04-23 19:24 | 45.49366 | -70.15937 | 38958 ft | 409 kts | 76° |
| 2026-04-23 19:24 | 45.50559 | -70.03672 | 38937 ft | 428 kts | 77° |
| 2026-04-23 19:25 | 45.51378 | -69.95129 | 38931 ft | 441 kts | 77° |
| 2026-04-23 19:25 | 45.52209 | -69.86355 | 38925 ft | 449 kts | 77° |
| 2026-04-23 19:26 | 45.53445 | -69.73073 | 38912 ft | 451 kts | 77° |
| 2026-04-23 19:27 | 45.55488 | -69.50886 | 38920 ft | 452 kts | 78° |
| 2026-04-23 19:28 | 45.57096 | -69.33092 | 38927 ft | 452 kts | 78° |
| 2026-04-23 19:29 | 45.58286 | -69.19727 | 38928 ft | 452 kts | 78° |
| 2026-04-23 19:30 | 45.59457 | -69.06365 | 38927 ft | 452 kts | 78° |
| 2026-04-23 19:31 | 45.60601 | -68.93066 | 38933 ft | 452 kts | 78° |
| 2026-04-23 19:31 | 45.61365 | -68.84099 | 38934 ft | 452 kts | 78° |
| 2026-04-23 19:32 | 45.62118 | -68.75196 | 38935 ft | 452 kts | 78° |
| 2026-04-23 19:32 | 45.62861 | -68.66350 | 38937 ft | 451 kts | 79° |
| 2026-04-23 19:33 | 45.63601 | -68.57446 | 38932 ft | 451 kts | 79° |
| 2026-04-23 19:33 | 45.64698 | -68.44087 | 38928 ft | 451 kts | 79° |
| 2026-04-23 19:34 | 45.65419 | -68.35180 | 38923 ft | 451 kts | 79° |
| 2026-04-23 19:35 | 45.66496 | -68.21822 | 38911 ft | 451 kts | 79° |
| 2026-04-23 19:35 | 45.67207 | -68.12916 | 38907 ft | 451 kts | 79° |
| 2026-04-23 19:36 | 45.67902 | -68.04003 | 38907 ft | 451 kts | 79° |
| 2026-04-23 19:36 | 45.68588 | -67.95096 | 38902 ft | 451 kts | 79° |
| 2026-04-23 19:37 | 45.69268 | -67.86183 | 38901 ft | 451 kts | 80° |
| 2026-04-23 19:37 | 45.70258 | -67.77379 | 38901 ft | 445 kts | 71° |
| 2026-04-23 19:38 | 45.71877 | -67.68827 | 38895 ft | 446 kts | 71° |
| 2026-04-23 19:38 | 45.73483 | -67.60261 | 38893 ft | 446 kts | 71° |
| 2026-04-23 19:39 | 45.75074 | -67.51692 | 38896 ft | 445 kts | 71° |
| 2026-04-23 19:39 | 45.76657 | -67.43117 | 38894 ft | 445 kts | 71° |
| 2026-04-23 19:40 | 45.78235 | -67.34546 | 38892 ft | 445 kts | 71° |
| 2026-04-23 19:40 | 45.79798 | -67.26032 | 38890 ft | 445 kts | 72° |
| 2026-04-23 19:41 | 45.81367 | -67.17459 | 38888 ft | 445 kts | 72° |
| 2026-04-23 19:41 | 45.82930 | -67.08882 | 38884 ft | 444 kts | 72° |
| 2026-04-23 19:42 | 45.84473 | -67.00302 | 38672 ft | 444 kts | 72° |
| 2026-04-23 19:42 | 45.85241 | -66.96022 | 38365 ft | 441 kts | 72° |
| 2026-04-23 19:42 | 45.86004 | -66.91775 | 37842 ft | 437 kts | 72° |
| 2026-04-23 19:42 | 45.86758 | -66.87581 | 37367 ft | 432 kts | 72° |
| 2026-04-23 19:43 | 45.87504 | -66.83419 | 36878 ft | 429 kts | 72° |
| 2026-04-23 19:43 | 45.88240 | -66.79292 | 36384 ft | 425 kts | 72° |
| 2026-04-23 19:43 | 45.88971 | -66.75179 | 35729 ft | 425 kts | 72° |
| 2026-04-23 19:43 | 45.89699 | -66.71090 | 34672 ft | 426 kts | 72° |
| 2026-04-23 19:44 | 45.90427 | -66.66997 | 33632 ft | 420 kts | 72° |
| 2026-04-23 19:44 | 45.91139 | -66.62969 | 32481 ft | 414 kts | 72° |
| 2026-04-23 19:44 | 45.91852 | -66.58939 | 31392 ft | 421 kts | 72° |
| 2026-04-23 19:44 | 45.92582 | -66.54812 | 30305 ft | 431 kts | 72° |
| 2026-04-23 19:45 | 45.93323 | -66.50595 | 29054 ft | 439 kts | 72° |
| 2026-04-23 19:45 | 45.94069 | -66.46323 | 28090 ft | 439 kts | 73° |
| 2026-04-23 19:45 | 45.94799 | -66.42117 | 27553 ft | 429 kts | 73° |
| 2026-04-23 19:45 | 45.95508 | -66.38000 | 26959 ft | 420 kts | 73° |
| 2026-04-23 19:46 | 45.96200 | -66.33963 | 26409 ft | 412 kts | 73° |
| 2026-04-23 19:46 | 45.96877 | -66.30010 | 25873 ft | 403 kts | 74° |
| 2026-04-23 19:46 | 45.97536 | -66.26147 | 25363 ft | 394 kts | 74° |
| 2026-04-23 19:46 | 45.98178 | -66.22370 | 24867 ft | 384 kts | 74° |
| 2026-04-23 19:47 | 45.98593 | -66.19917 | 24544 ft | 379 kts | 74° |
| 2026-04-23 19:47 | 45.99420 | -66.15056 | 23910 ft | 370 kts | 74° |
| 2026-04-23 19:47 | 46.00025 | -66.11496 | 23431 ft | 364 kts | 75° |
| 2026-04-23 19:47 | 46.00619 | -66.07989 | 22900 ft | 358 kts | 75° |
| 2026-04-23 19:48 | 46.01199 | -66.04550 | 22430 ft | 351 kts | 75° |
| 2026-04-23 19:48 | 46.01772 | -66.01158 | 21961 ft | 348 kts | 74° |
| 2026-04-23 19:48 | 46.02343 | -65.97785 | 21494 ft | 346 kts | 74° |
| 2026-04-23 19:48 | 46.02909 | -65.94432 | 21030 ft | 344 kts | 74° |
| 2026-04-23 19:49 | 46.03467 | -65.91095 | 20554 ft | 342 kts | 74° |
| 2026-04-23 19:49 | 46.04018 | -65.87779 | 20073 ft | 340 kts | 74° |
| 2026-04-23 19:49 | 46.04564 | -65.84481 | 19606 ft | 338 kts | 74° |
| 2026-04-23 19:49 | 46.05107 | -65.81200 | 19137 ft | 336 kts | 74° |
| 2026-04-23 19:50 | 46.05648 | -65.77943 | 18675 ft | 334 kts | 74° |
| 2026-04-23 19:50 | 46.06186 | -65.74704 | 18216 ft | 332 kts | 74° |
| 2026-04-23 19:50 | 46.06720 | -65.71483 | 17717 ft | 329 kts | 74° |
| 2026-04-23 19:50 | 46.07249 | -65.68285 | 17269 ft | 327 kts | 73° |
| 2026-04-23 19:51 | 46.07774 | -65.65112 | 16819 ft | 325 kts | 73° |
| 2026-04-23 19:51 | 46.08293 | -65.61962 | 16382 ft | 322 kts | 73° |
| 2026-04-23 19:51 | 46.08798 | -65.58877 | 15956 ft | 320 kts | 73° |
| 2026-04-23 19:51 | 46.09307 | -65.55772 | 15520 ft | 317 kts | 73° |
| 2026-04-23 19:52 | 46.09648 | -65.53687 | 15235 ft | 316 kts | 73° |
| 2026-04-23 19:52 | 46.10306 | -65.49631 | 14746 ft | 312 kts | 73° |
| 2026-04-23 19:52 | 46.10800 | -65.46586 | 14414 ft | 312 kts | 73° |
| 2026-04-23 19:52 | 46.11293 | -65.43558 | 13990 ft | 309 kts | 73° |
| 2026-04-23 19:53 | 46.11784 | -65.40549 | 13547 ft | 307 kts | 73° |
| 2026-04-23 19:53 | 46.12270 | -65.37567 | 13085 ft | 304 kts | 73° |
| 2026-04-23 19:53 | 46.12753 | -65.34609 | 12661 ft | 302 kts | 73° |
| 2026-04-23 19:53 | 46.13227 | -65.31691 | 12304 ft | 295 kts | 74° |
| 2026-04-23 19:54 | 46.13691 | -65.28822 | 11824 ft | 293 kts | 74° |
| 2026-04-23 19:54 | 46.14147 | -65.25976 | 11388 ft | 289 kts | 75° |
| 2026-04-23 19:54 | 46.14595 | -65.23165 | 10969 ft | 286 kts | 75° |
| 2026-04-23 19:54 | 46.15040 | -65.20380 | 10541 ft | 284 kts | 75° |
| 2026-04-23 19:55 | 46.15483 | -65.17624 | 10224 ft | 279 kts | 75° |
| 2026-04-23 19:55 | 46.15922 | -65.14888 | 10143 ft | 281 kts | 75° |
| 2026-04-23 19:55 | 46.16364 | -65.12142 | 10046 ft | 281 kts | 75° |
| 2026-04-23 19:55 | 46.16805 | -65.09389 | 9680 ft | 284 kts | 76° |
| 2026-04-23 19:56 | 46.17250 | -65.06607 | 9179 ft | 281 kts | 76° |
| 2026-04-23 19:56 | 46.17686 | -65.03848 | 8543 ft | 283 kts | 76° |
| 2026-04-23 19:56 | 46.18118 | -65.01118 | 8188 ft | 276 kts | 76° |
| 2026-04-23 19:56 | 46.18543 | -64.98441 | 7724 ft | 273 kts | 76° |
| 2026-04-23 19:57 | 46.18821 | -64.96677 | 7402 ft | 272 kts | 76° |
| 2026-04-23 19:57 | 46.19239 | -64.94031 | 7020 ft | 269 kts | 76° |
| 2026-04-23 19:57 | 46.19663 | -64.91353 | 6366 ft | 276 kts | 76° |
| 2026-04-23 19:57 | 46.20079 | -64.88711 | 5879 ft | 267 kts | 77° |
| 2026-04-23 19:58 | 46.20489 | -64.86092 | 5678 ft | 267 kts | 77° |
| 2026-04-23 19:58 | 46.20897 | -64.83478 | 5552 ft | 266 kts | 76° |
| 2026-04-23 19:58 | 46.21305 | -64.80876 | 5429 ft | 265 kts | 77° |
| 2026-04-23 19:58 | 46.21711 | -64.78276 | 5153 ft | 266 kts | 77° |
| 2026-04-23 19:59 | 46.22113 | -64.75691 | 4750 ft | 262 kts | 76° |
| 2026-04-23 19:59 | 46.22511 | -64.73140 | 4366 ft | 259 kts | 77° |
| 2026-04-23 19:59 | 46.22904 | -64.70617 | 3995 ft | 256 kts | 77° |
| 2026-04-23 19:59 | 46.23292 | -64.68131 | 3633 ft | 251 kts | 77° |
| 2026-04-23 20:00 | 46.23512 | -64.65666 | 3276 ft | 246 kts | 93° |
| 2026-04-23 20:00 | 46.23080 | -64.63316 | 2926 ft | 242 kts | 116° |
| 2026-04-23 20:00 | 46.22057 | -64.61427 | 2590 ft | 239 kts | 139° |
| 2026-04-23 20:00 | 46.20655 | -64.60294 | 2261 ft | 221 kts | 161° |
| 2026-04-23 20:01 | 46.19206 | -64.60012 | 1945 ft | 200 kts | 181° |
| 2026-04-23 20:01 | 46.17920 | -64.60390 | 1691 ft | 176 kts | 199° |
| 2026-04-23 20:01 | 46.16917 | -64.61165 | 1434 ft | 158 kts | 216° |
| 2026-04-23 20:01 | 46.16135 | -64.62154 | 1204 ft | 143 kts | 223° |
| 2026-04-23 20:02 | 46.15429 | -64.63080 | 1005 ft | 132 kts | 223° |
| 2026-04-23 20:02 | 46.14765 | -64.63951 | 821 ft | 126 kts | 223° |
| 2026-04-23 20:02 | 46.14127 | -64.64789 | 660 ft | 123 kts | 223° |
| 2026-04-23 20:02 | 46.13502 | -64.65608 | 546 ft | 121 kts | 222° |
| 2026-04-23 20:03 | 46.12883 | -64.66419 | 373 ft | 119 kts | 223° |
| 2026-04-23 20:03 | 46.12284 | -64.67234 | 238 ft | 116 kts | 218° |
| 2026-04-23 20:03 | 46.11757 | -64.68006 | 265 ft | 96 kts | 212° |
| 2026-04-23 20:03 | 46.11328 | -64.68539 | 219 ft | 49 kts | 216° |
| 2026-04-23 20:04 | 46.11270 | -64.68599 | 217 ft | 0 kts | 216° |